createdAt,value
2022-09-25T00:00:59.331Z,32.75
2022-09-25T00:03:28.675Z,32.53
2022-09-25T00:06:02.781Z,28.03
2022-09-25T00:08:29.961Z,32.42
2022-09-25T00:10:57.487Z,35.67
2022-09-25T00:13:24.913Z,30.58
2022-09-25T00:15:55.147Z,26.60
2022-09-25T00:18:42.902Z,30.02
2022-09-25T00:21:12.793Z,26.73
2022-09-25T00:23:39.882Z,25.90
2022-09-25T00:26:08.211Z,28.58
2022-09-25T00:28:39.405Z,24.80
2022-09-25T00:31:07.635Z,34.70
2022-09-25T00:33:36.132Z,28.98
2022-09-25T00:36:08.675Z,30.98
2022-09-25T00:38:37.533Z,28.77
2022-09-25T00:41:07.069Z,26.10
2022-09-25T00:43:38.686Z,29.52
2022-09-25T00:46:14.193Z,29.10
2022-09-25T00:48:53.443Z,31.08
2022-09-25T00:51:29.071Z,25.60
2022-09-25T00:54:04.469Z,25.05
2022-09-25T00:56:38.104Z,24.77
2022-09-25T00:59:06.219Z,20.25
2022-09-25T01:01:33.217Z,25.35
2022-09-25T01:04:00.413Z,24.70
2022-09-25T01:06:27.963Z,22.13
2022-09-25T01:08:55.786Z,26.42
2022-09-25T01:11:22.685Z,22.60
2022-09-25T01:13:49.628Z,22.03
2022-09-25T01:16:41.300Z,22.00
2022-09-25T01:19:08.152Z,25.25
2022-09-25T01:21:44.525Z,25.17
2022-09-25T01:24:21.193Z,24.33
2022-09-25T01:27:20.257Z,23.38
2022-09-25T01:29:54.253Z,20.70
2022-09-25T01:32:27.919Z,25.52
2022-09-25T01:35:04.051Z,24.95
2022-09-25T01:37:48.962Z,19.33
2022-09-25T01:40:35.973Z,25.27
2022-09-25T01:43:23.723Z,21.80
2022-09-25T01:45:54.025Z,21.83
2022-09-25T01:48:27.205Z,21.73
2022-09-25T01:51:03.381Z,22.35
2022-09-25T01:53:34.995Z,20.10
2022-09-25T01:56:31.596Z,19.10
2022-09-25T01:59:10.983Z,18.23
2022-09-25T02:01:42.462Z,19.45
2022-09-25T02:04:24.020Z,25.30
2022-09-25T02:06:54.479Z,16.67
2022-09-25T02:09:29.564Z,27.00
2022-09-25T02:12:00.823Z,21.00
2022-09-25T02:14:29.187Z,28.90
2022-09-25T02:16:59.226Z,27.75
2022-09-25T02:19:44.987Z,27.13
2022-09-25T02:22:19.927Z,42.65
2022-09-25T02:25:15.633Z,26.95
2022-09-25T02:27:42.453Z,48.55
2022-09-25T02:30:11.674Z,35.47
2022-09-25T02:32:38.468Z,38.28
2022-09-25T02:35:05.848Z,31.50
2022-09-25T02:37:32.603Z,31.70
2022-09-25T02:40:02.260Z,32.45
2022-09-25T02:42:48.317Z,34.78
2022-09-25T02:45:33.536Z,28.00
2022-09-25T02:48:41.411Z,33.13
2022-09-25T02:51:11.007Z,33.22
2022-09-25T02:53:52.751Z,31.90
2022-09-25T02:56:31.603Z,37.30
2022-09-25T02:59:06.835Z,29.67
2022-09-25T03:01:37.552Z,28.63
2022-09-25T03:04:05.516Z,29.05
2022-09-25T03:06:32.658Z,27.83
2022-09-25T03:09:02.281Z,30.35
2022-09-25T03:11:29.176Z,32.38
2022-09-25T03:14:01.882Z,27.77
2022-09-25T03:16:48.011Z,28.90
2022-09-25T03:19:16.133Z,29.92
2022-09-25T03:21:43.014Z,29.42
2022-09-25T03:24:10.042Z,27.92
2022-09-25T03:26:36.957Z,33.40
2022-09-25T03:29:04.116Z,24.20
2022-09-25T03:31:31.377Z,30.50
2022-09-25T03:33:58.525Z,27.58
2022-09-25T03:36:27.558Z,28.63
2022-09-25T03:38:59.049Z,30.15
2022-09-25T03:41:31.226Z,28.08
2022-09-25T03:43:58.759Z,29.05
2022-09-25T03:46:28.229Z,30.30
2022-09-25T03:48:55.654Z,31.67
2022-09-25T03:51:24.066Z,31.05
2022-09-25T03:53:51.881Z,26.63
2022-09-25T03:56:22.852Z,28.40
2022-09-25T03:58:51.235Z,30.02
2022-09-25T04:01:21.980Z,27.17
2022-09-25T04:03:49.722Z,29.02
2022-09-25T04:06:18.519Z,27.17
2022-09-25T04:08:47.016Z,26.33
2022-09-25T04:11:17.660Z,30.00
2022-09-25T04:13:44.966Z,29.98
2022-09-25T04:16:13.290Z,28.77
2022-09-25T04:18:40.803Z,30.83
2022-09-25T04:21:08.878Z,24.23
2022-09-25T04:23:37.064Z,23.27
2022-09-25T04:26:04.303Z,28.83
2022-09-25T04:28:32.936Z,25.38
2022-09-25T04:31:00.377Z,36.72
2022-09-25T04:33:46.203Z,26.42
2022-09-25T04:36:13.040Z,30.73
2022-09-25T04:38:39.875Z,23.67
2022-09-25T04:41:08.168Z,30.60
2022-09-25T04:43:35.598Z,32.53
2022-09-25T04:46:04.519Z,24.42
2022-09-25T04:48:32.643Z,31.05
2022-09-25T04:50:59.589Z,26.42
2022-09-25T04:53:27.342Z,29.58
2022-09-25T04:55:55.239Z,29.60
2022-09-25T04:58:22.379Z,33.53
2022-09-25T05:00:49.895Z,31.55
2022-09-25T05:03:16.841Z,35.92
2022-09-25T05:05:43.695Z,30.10
2022-09-25T05:08:11.547Z,28.88
2022-09-25T05:10:41.169Z,33.92
2022-09-25T05:13:09.304Z,28.15
2022-09-25T05:15:36.406Z,25.70
2022-09-25T05:18:20.825Z,26.40
2022-09-25T05:20:48.683Z,31.98
2022-09-25T05:23:16.303Z,28.15
2022-09-25T05:25:43.172Z,31.92
2022-09-25T05:28:11.252Z,24.52
2022-09-25T05:30:39.038Z,28.95
2022-09-25T05:33:06.021Z,31.40
2022-09-25T05:35:33.395Z,28.27
2022-09-25T05:38:00.267Z,30.35
2022-09-25T05:40:30.236Z,29.83
2022-09-25T05:42:57.085Z,29.67
2022-09-25T05:45:23.953Z,30.35
2022-09-25T05:48:01.954Z,33.88
2022-09-25T05:50:29.028Z,33.58
2022-09-25T05:53:01.071Z,31.75
2022-09-25T05:55:28.691Z,28.40
2022-09-25T05:58:03.913Z,39.15
2022-09-25T06:00:32.948Z,35.97
2022-09-25T06:03:03.268Z,36.88
2022-09-25T06:05:30.372Z,37.92
2022-09-25T06:07:57.240Z,37.20
2022-09-25T06:10:26.770Z,40.10
2022-09-25T06:12:58.954Z,39.40
2022-09-25T06:15:30.279Z,35.15
2022-09-25T06:17:57.222Z,50.10
2022-09-25T06:20:25.329Z,33.25
2022-09-25T06:22:56.066Z,38.30
2022-09-25T06:25:25.986Z,30.73
2022-09-25T06:27:54.409Z,33.75
2022-09-25T06:30:22.536Z,36.45
2022-09-25T06:32:51.146Z,37.25
2022-09-25T06:35:17.912Z,36.33
2022-09-25T06:37:44.671Z,33.40
2022-09-25T06:40:11.556Z,40.42
2022-09-25T06:42:38.500Z,32.30
2022-09-25T06:45:05.573Z,27.00
2022-09-25T06:47:32.366Z,31.90
2022-09-25T06:49:59.990Z,29.60
2022-09-25T06:52:26.821Z,29.35
2022-09-25T06:54:53.889Z,30.73
2022-09-25T06:57:20.670Z,31.48
2022-09-25T06:59:47.425Z,31.90
2022-09-25T07:02:32.772Z,35.90
2022-09-25T07:05:00.441Z,34.20
2022-09-25T07:07:28.459Z,31.02
2022-09-25T07:09:55.274Z,38.38
2022-09-25T07:12:22.759Z,29.10
2022-09-25T07:14:49.549Z,32.95
2022-09-25T07:17:16.361Z,29.97
2022-09-25T07:19:43.292Z,26.35
2022-09-25T07:22:10.497Z,29.10
2022-09-25T07:24:38.262Z,33.37
2022-09-25T07:27:05.042Z,28.88
2022-09-25T07:29:31.881Z,23.37
2022-09-25T07:32:00.131Z,32.65
2022-09-25T07:34:26.905Z,26.08
2022-09-25T07:36:55.287Z,37.78
2022-09-25T07:39:22.206Z,25.00
2022-09-25T07:41:48.978Z,28.02
2022-09-25T07:44:29.087Z,30.10
2022-09-25T07:46:56.942Z,26.00
2022-09-25T07:49:24.151Z,32.47
2022-09-25T07:51:51.002Z,27.75
2022-09-25T07:54:17.833Z,28.87
2022-09-25T07:56:44.655Z,27.15
2022-09-25T07:59:11.534Z,30.48
2022-09-25T08:01:43.675Z,27.13
2022-09-25T08:04:11.639Z,25.90
2022-09-25T08:06:38.737Z,28.07
2022-09-25T08:09:10.117Z,32.43
2022-09-25T08:11:37.293Z,25.83
2022-09-25T08:14:04.242Z,22.60
2022-09-25T08:16:31.119Z,28.03
2022-09-25T08:18:57.957Z,24.43
2022-09-25T08:21:24.897Z,38.33
2022-09-25T08:23:53.558Z,24.67
2022-09-25T08:26:22.212Z,21.90
2022-09-25T08:28:49.566Z,29.73
2022-09-25T08:31:16.486Z,24.27
2022-09-25T08:33:47.462Z,27.53
2022-09-25T08:36:16.276Z,24.90
2022-09-25T08:38:43.160Z,28.67
2022-09-25T08:41:22.866Z,26.10
2022-09-25T08:44:07.250Z,26.83
2022-09-25T08:47:03.969Z,26.53
2022-09-25T08:49:57.510Z,25.37
2022-09-25T08:52:24.599Z,25.53
2022-09-25T08:54:51.933Z,26.40
2022-09-25T08:57:35.106Z,26.83
2022-09-25T09:00:14.998Z,26.93
2022-09-25T09:02:45.837Z,22.57
2022-09-25T09:05:27.154Z,27.20
2022-09-25T09:07:59.866Z,25.60
2022-09-25T09:10:48.271Z,26.00
2022-09-25T09:13:31.524Z,27.57
2022-09-25T09:16:01.515Z,26.50
2022-09-25T09:18:30.444Z,23.40
2022-09-25T09:21:10.443Z,23.83
2022-09-25T09:24:06.760Z,22.20
2022-09-25T09:26:43.537Z,24.47
2022-09-25T09:29:13.011Z,23.90
2022-09-25T09:32:04.355Z,23.13
2022-09-25T09:35:07.154Z,21.17
2022-09-25T09:38:06.116Z,20.67
2022-09-25T09:40:55.607Z,21.67
2022-09-25T09:43:55.030Z,23.83
2022-09-25T09:46:37.188Z,25.80
2022-09-25T09:49:27.299Z,22.50
2022-09-25T09:52:20.674Z,22.90
2022-09-25T09:54:55.113Z,31.40
2022-09-25T09:57:33.127Z,21.63
2022-09-25T10:00:13.384Z,20.27
2022-09-25T10:03:05.096Z,23.77
2022-09-25T10:05:47.300Z,17.23
2022-09-25T10:08:14.776Z,23.07
2022-09-25T10:10:47.529Z,14.57
2022-09-25T10:13:20.249Z,17.13
2022-09-25T10:15:58.884Z,15.43
2022-09-25T10:18:31.819Z,15.57
2022-09-25T10:21:26.216Z,14.40
2022-09-25T10:23:55.551Z,16.63
2022-09-25T10:26:29.663Z,14.00
2022-09-25T10:28:59.308Z,18.40
2022-09-25T10:31:31.774Z,12.73
2022-09-25T10:34:17.636Z,16.40
2022-09-25T10:36:51.270Z,18.53
2022-09-25T10:39:45.155Z,15.83
2022-09-25T10:42:32.450Z,15.07
2022-09-25T10:44:59.283Z,12.60
2022-09-25T10:47:51.204Z,11.87
2022-09-25T10:50:21.010Z,15.73
2022-09-25T10:52:50.669Z,15.67
2022-09-25T10:55:32.470Z,12.40
2022-09-25T10:58:11.485Z,13.80
2022-09-25T11:00:59.531Z,12.97
2022-09-25T11:03:34.440Z,11.87
2022-09-25T11:06:03.900Z,9.20
2022-09-25T11:08:34.476Z,11.30
2022-09-25T11:11:03.031Z,7.00
2022-09-25T11:13:48.742Z,12.00
2022-09-25T11:16:16.016Z,5.97
2022-09-25T11:18:47.070Z,7.47
2022-09-25T11:21:44.331Z,6.30
2022-09-25T11:24:23.246Z,4.57
2022-09-25T11:26:59.881Z,5.43
2022-09-25T11:29:45.884Z,5.10
2022-09-25T11:32:40.152Z,5.93
2022-09-25T11:35:33.604Z,4.60
2022-09-25T11:38:03.881Z,4.40
2022-09-25T11:41:29.130Z,3.70
2022-09-25T11:44:21.388Z,3.60
2022-09-25T11:47:15.902Z,8.03
2022-09-25T11:49:43.334Z,4.70
2022-09-25T11:52:28.822Z,4.03
2022-09-25T11:55:27.722Z,5.30
2022-09-25T11:58:20.809Z,10.10
2022-09-25T12:01:01.204Z,5.03
2022-09-25T12:03:45.435Z,4.97
2022-09-25T12:06:49.029Z,7.50
2022-09-25T12:09:30.162Z,5.33
2022-09-25T12:12:05.869Z,12.40
2022-09-25T12:14:57.018Z,10.20
2022-09-25T12:17:37.516Z,5.20
2022-09-25T12:20:26.079Z,7.00
2022-09-25T12:23:01.886Z,7.30
2022-09-25T12:25:50.162Z,5.57
2022-09-25T12:28:40.044Z,7.17
2022-09-25T12:31:23.910Z,5.93
2022-09-25T12:34:18.446Z,6.60
2022-09-25T12:37:08.125Z,8.33
2022-09-25T12:40:14.725Z,7.10
2022-09-25T12:43:07.812Z,6.90
2022-09-25T12:45:52.681Z,10.23
2022-09-25T12:48:33.300Z,5.63
2022-09-25T12:51:07.394Z,7.23
2022-09-25T12:53:56.207Z,6.20
2022-09-25T12:56:54.066Z,8.90
2022-09-25T12:59:42.554Z,9.60
2022-09-25T13:02:31.067Z,5.40
2022-09-25T13:05:21.693Z,7.60
2022-09-25T13:08:10.431Z,6.33
2022-09-25T13:10:39.103Z,5.07
2022-09-25T13:13:13.491Z,6.33
2022-09-25T13:15:42.922Z,8.30
2022-09-25T13:18:19.399Z,8.27
2022-09-25T13:21:08.858Z,7.10
2022-09-25T13:23:41.641Z,7.20
2022-09-25T13:26:18.090Z,4.00
2022-09-25T13:29:15.244Z,5.80
2022-09-25T13:31:44.772Z,5.70
2022-09-25T13:34:14.791Z,7.40
2022-09-25T13:36:47.776Z,5.23
2022-09-25T13:39:32.894Z,7.30
2022-09-25T13:42:06.267Z,6.07
2022-09-25T13:44:50.175Z,6.57
2022-09-25T13:47:27.259Z,4.27
2022-09-25T13:50:09.368Z,10.33
2022-09-25T13:52:39.647Z,4.80
2022-09-25T13:55:24.079Z,4.73
2022-09-25T13:57:58.347Z,10.50
2022-09-25T14:00:38.090Z,4.50
2022-09-25T14:03:05.646Z,6.17
2022-09-25T14:05:36.253Z,10.47
2022-09-25T14:08:15.912Z,6.63
2022-09-25T14:10:49.515Z,6.13
2022-09-25T14:13:21.899Z,5.27
2022-09-25T14:15:48.771Z,7.83
2022-09-25T14:18:36.268Z,7.70
2022-09-25T14:21:06.390Z,6.90
2022-09-25T14:23:33.516Z,5.20
2022-09-25T14:26:07.236Z,6.20
2022-09-25T14:28:43.976Z,6.80
2022-09-25T14:31:32.918Z,5.80
2022-09-25T14:34:29.919Z,5.30
2022-09-25T14:37:05.658Z,5.00
2022-09-25T14:39:38.259Z,8.60
2022-09-25T14:42:32.757Z,8.33
2022-09-25T14:45:37.245Z,8.07
2022-09-25T14:48:13.680Z,8.67
2022-09-25T14:50:50.578Z,11.30
2022-09-25T14:53:25.870Z,8.63
2022-09-25T14:55:54.175Z,7.03
2022-09-25T14:58:24.902Z,12.23
2022-09-25T15:01:07.096Z,14.47
2022-09-25T15:03:39.750Z,7.37
2022-09-25T15:06:06.654Z,15.47
2022-09-25T15:08:41.692Z,10.57
2022-09-25T15:11:17.183Z,8.10
2022-09-25T15:13:44.655Z,8.53
2022-09-25T15:16:44.370Z,8.20
2022-09-25T15:19:27.511Z,8.60
2022-09-25T15:21:54.710Z,7.30
2022-09-25T15:24:27.729Z,10.77
2022-09-25T15:27:06.886Z,6.90
2022-09-25T15:29:38.220Z,12.03
2022-09-25T15:32:05.903Z,18.20
2022-09-25T15:34:34.038Z,10.10
2022-09-25T15:37:30.970Z,4.90
2022-09-25T15:40:08.424Z,7.13
2022-09-25T15:42:35.231Z,7.37
2022-09-25T15:45:12.275Z,10.33
2022-09-25T15:47:50.548Z,7.13
2022-09-25T15:50:24.062Z,9.53
2022-09-25T15:53:00.567Z,7.17
2022-09-25T15:55:31.274Z,5.47
2022-09-25T15:58:10.794Z,9.60
2022-09-25T16:00:56.093Z,6.00
2022-09-25T16:03:45.011Z,10.77
2022-09-25T16:06:18.501Z,5.83
2022-09-25T16:08:45.485Z,7.53
2022-09-25T16:11:22.707Z,5.13
2022-09-25T16:13:52.103Z,7.67
2022-09-25T16:16:30.617Z,5.90
2022-09-25T16:19:21.668Z,6.77
2022-09-25T16:21:48.988Z,7.00
2022-09-25T16:24:25.843Z,7.13
2022-09-25T16:27:04.281Z,6.00
2022-09-25T16:29:34.081Z,8.03
2022-09-25T16:32:08.112Z,6.57
2022-09-25T16:34:37.956Z,6.47
2022-09-25T16:37:08.502Z,8.53
2022-09-25T16:39:39.456Z,11.20
2022-09-25T16:42:26.667Z,6.60
2022-09-25T16:45:23.771Z,6.77
2022-09-25T16:47:51.640Z,8.60
2022-09-25T16:50:20.260Z,9.03
2022-09-25T16:52:48.119Z,6.53
2022-09-25T16:55:19.034Z,6.13
2022-09-25T16:57:46.420Z,6.47
2022-09-25T17:00:19.916Z,7.90
2022-09-25T17:02:47.930Z,6.20
2022-09-25T17:05:28.658Z,9.03
2022-09-25T17:08:01.494Z,7.73
2022-09-25T17:10:31.840Z,12.20
2022-09-25T17:13:01.564Z,8.63
2022-09-25T17:15:36.528Z,14.03
2022-09-25T17:18:07.238Z,7.50
2022-09-25T17:20:35.630Z,8.60
2022-09-25T17:23:02.469Z,10.90
2022-09-25T17:25:40.390Z,11.70
2022-09-25T17:28:09.943Z,11.47
2022-09-25T17:30:37.484Z,8.80
2022-09-25T17:33:07.259Z,8.30
2022-09-25T17:35:49.044Z,10.20
2022-09-25T17:38:16.254Z,13.00
2022-09-25T17:40:45.169Z,12.00
2022-09-25T17:43:14.021Z,11.80
2022-09-25T17:45:46.093Z,11.63
2022-09-25T17:48:12.902Z,11.20
2022-09-25T17:50:39.950Z,9.90
2022-09-25T17:53:18.581Z,12.43
2022-09-25T17:55:52.601Z,14.07
2022-09-25T17:58:20.858Z,11.63
2022-09-25T18:00:48.524Z,14.63
2022-09-25T18:03:16.670Z,11.60
2022-09-25T18:05:44.404Z,11.17
2022-09-25T18:08:12.377Z,13.00
2022-09-25T18:10:39.953Z,11.87
2022-09-25T18:13:10.998Z,14.53
2022-09-25T18:15:41.807Z,17.03
2022-09-25T18:18:09.819Z,21.40
2022-09-25T18:20:55.119Z,13.23
2022-09-25T18:23:22.048Z,13.67
2022-09-25T18:25:48.960Z,16.87
2022-09-25T18:28:18.023Z,12.73
2022-09-25T18:30:44.883Z,16.83
2022-09-25T18:33:11.991Z,13.27
2022-09-25T18:35:40.307Z,13.33
2022-09-25T18:38:07.125Z,11.80
2022-09-25T18:40:34.048Z,15.40
2022-09-25T18:43:01.450Z,22.00
2022-09-25T18:45:28.284Z,24.10
2022-09-25T18:47:55.165Z,15.87
2022-09-25T18:50:22.084Z,13.93
2022-09-25T18:52:48.982Z,12.20
2022-09-25T18:55:15.831Z,28.50
2022-09-25T18:57:42.818Z,16.60
2022-09-25T19:00:10.312Z,15.50
2022-09-25T19:02:39.248Z,15.80
2022-09-25T19:05:07.323Z,13.57
2022-09-25T19:07:35.775Z,17.10
2022-09-25T19:10:07.832Z,14.20
2022-09-25T19:12:34.686Z,22.23
2022-09-25T19:15:04.701Z,16.63
2022-09-25T19:17:32.197Z,16.73
2022-09-25T19:19:59.117Z,19.07
2022-09-25T19:22:26.040Z,18.53
2022-09-25T19:24:54.541Z,22.57
2022-09-25T19:27:21.681Z,20.33
2022-09-25T19:29:48.522Z,23.63
2022-09-25T19:32:17.243Z,22.33
2022-09-25T19:34:44.691Z,18.33
2022-09-25T19:37:11.688Z,19.67
2022-09-25T19:39:57.410Z,20.27
2022-09-25T19:42:26.678Z,20.33
2022-09-25T19:44:55.955Z,17.13
2022-09-25T19:47:23.717Z,18.20
2022-09-25T19:49:50.507Z,16.40
2022-09-25T19:52:17.650Z,17.43
2022-09-25T19:54:44.407Z,17.27
2022-09-25T19:57:11.275Z,20.50
2022-09-25T19:59:38.044Z,18.27
2022-09-25T20:02:05.123Z,20.37
2022-09-25T20:04:32.158Z,26.77
2022-09-25T20:06:59.079Z,21.13
2022-09-25T20:09:26.854Z,28.77
2022-09-25T20:11:54.110Z,29.60
2022-09-25T20:14:25.420Z,31.47
2022-09-25T20:16:54.037Z,29.80
2022-09-25T20:19:21.437Z,34.13
2022-09-25T20:21:49.025Z,27.00
2022-09-25T20:24:15.981Z,32.53
2022-09-25T20:26:42.754Z,31.83
2022-09-25T20:29:12.844Z,32.97
2022-09-25T20:31:42.625Z,27.77
2022-09-25T20:34:19.175Z,29.67
2022-09-25T20:36:47.202Z,30.33
2022-09-25T20:39:20.631Z,29.00
2022-09-25T20:41:48.734Z,27.53
2022-09-25T20:44:15.550Z,28.53
2022-09-25T20:46:42.544Z,23.77
2022-09-25T20:49:10.858Z,24.57
2022-09-25T20:51:38.072Z,29.20
2022-09-25T20:57:10.923Z,30.87
2022-09-25T20:59:37.946Z,31.50
2022-09-25T21:02:05.572Z,27.90
2022-09-25T21:04:32.474Z,30.17
2022-09-25T21:06:59.306Z,31.30
2022-09-25T21:09:26.986Z,33.00
2022-09-25T21:11:54.433Z,28.70
2022-09-25T21:14:27.374Z,31.30
2022-09-25T21:16:58.439Z,30.37
2022-09-25T21:19:26.116Z,27.97
2022-09-25T21:21:52.970Z,31.57
2022-09-25T21:24:21.252Z,31.30
2022-09-25T21:26:50.109Z,33.43
2022-09-25T21:29:17.860Z,29.20
2022-09-25T21:31:49.921Z,29.10
2022-09-25T21:34:18.199Z,28.80
2022-09-25T21:36:46.000Z,34.93
2022-09-25T21:39:13.366Z,32.03
2022-09-25T21:41:40.336Z,29.73
2022-09-25T21:44:13.236Z,23.50
2022-09-25T21:46:41.045Z,28.50
2022-09-25T21:49:09.041Z,27.03
2022-09-25T21:51:39.143Z,27.03
2022-09-25T21:54:08.598Z,23.30
2022-09-25T21:56:35.991Z,27.00
2022-09-25T21:59:08.601Z,23.93
2022-09-25T22:01:38.727Z,23.43
2022-09-25T22:04:06.737Z,27.30
2022-09-25T22:06:39.124Z,26.77
2022-09-25T22:09:09.077Z,29.73
2022-09-25T22:11:37.291Z,30.93
2022-09-25T22:14:05.853Z,29.73
2022-09-25T22:16:35.228Z,25.50
2022-09-25T22:19:06.058Z,31.97
2022-09-25T22:21:34.585Z,30.07
2022-09-25T22:24:01.762Z,28.00
2022-09-25T22:26:29.381Z,23.23
2022-09-25T22:28:56.990Z,23.97
2022-09-25T22:31:26.481Z,26.70
2022-09-25T22:33:58.856Z,28.73
2022-09-25T22:36:27.369Z,27.33
2022-09-25T22:38:55.002Z,29.57
2022-09-25T22:41:22.514Z,27.17
2022-09-25T22:43:55.005Z,25.90
2022-09-25T22:46:25.929Z,25.57
2022-09-25T22:48:53.225Z,33.03
2022-09-25T22:51:22.341Z,24.37
2022-09-25T22:53:49.589Z,27.40
2022-09-25T22:56:28.060Z,25.57
2022-09-25T22:58:57.535Z,33.07
2022-09-25T23:01:37.777Z,22.20
2022-09-25T23:04:08.102Z,25.70
2022-09-25T23:06:35.965Z,27.47
2022-09-25T23:09:05.964Z,26.37
2022-09-25T23:11:33.049Z,21.50
2022-09-25T23:14:06.232Z,28.30
2022-09-25T23:16:34.116Z,22.70
2022-09-25T23:19:01.753Z,20.83
2022-09-25T23:21:29.864Z,33.47
2022-09-25T23:24:02.512Z,23.53
2022-09-25T23:26:30.219Z,21.20
2022-09-25T23:28:58.768Z,26.43
2022-09-25T23:31:26.365Z,22.30
2022-09-25T23:33:53.262Z,18.23
2022-09-25T23:36:22.806Z,30.80
2022-09-25T23:38:51.732Z,22.30
2022-09-25T23:41:21.078Z,24.53
2022-09-25T23:43:49.375Z,17.43
2022-09-25T23:46:18.003Z,19.50
2022-09-25T23:48:45.554Z,19.30
2022-09-25T23:51:13.819Z,20.23
2022-09-25T23:53:41.334Z,20.73
2022-09-25T23:56:16.985Z,27.80
2022-09-25T23:58:44.482Z,25.77
